createdAt,value
2023-10-23T00:00:08.335Z,6.65
2023-10-23T00:00:26.158Z,7.90
2023-10-23T00:00:38.304Z,3.22
2023-10-23T00:00:50.235Z,3.53
2023-10-23T00:01:02.310Z,4.53
2023-10-23T00:01:14.199Z,4.47
2023-10-23T00:01:35.174Z,4.68
2023-10-23T00:01:47.032Z,4.65
2023-10-23T00:01:58.892Z,7.15
2023-10-23T00:02:10.950Z,8.48
2023-10-23T00:02:22.741Z,9.63
2023-10-23T00:02:34.550Z,4.60
2023-10-23T00:02:46.360Z,7.03
2023-10-23T00:02:58.195Z,5.82
2023-10-23T00:03:10.214Z,6.90
2023-10-23T00:03:22.308Z,5.03
2023-10-23T00:03:34.318Z,3.25
2023-10-23T00:03:46.564Z,8.57
2023-10-23T00:03:58.646Z,10.68
2023-10-23T00:04:10.779Z,10.32
2023-10-23T00:04:22.929Z,6.85
2023-10-23T00:04:34.993Z,7.00
2023-10-23T00:04:47.138Z,4.65
2023-10-23T00:04:59.607Z,5.30
2023-10-23T00:05:11.892Z,4.90
2023-10-23T00:05:23.967Z,4.68
2023-10-23T00:05:36.041Z,5.25
2023-10-23T00:05:47.920Z,5.25
2023-10-23T00:05:59.716Z,4.22
2023-10-23T00:06:11.529Z,3.45
2023-10-23T00:06:23.383Z,3.58
2023-10-23T00:06:35.698Z,5.40
2023-10-23T00:06:47.664Z,6.70
2023-10-23T00:06:59.524Z,5.93
2023-10-23T00:07:11.377Z,5.85
2023-10-23T00:07:23.169Z,7.20
2023-10-23T00:07:35.081Z,6.40
2023-10-23T00:07:46.859Z,6.63
2023-10-23T00:07:58.675Z,5.07
2023-10-23T00:08:10.512Z,3.78
2023-10-23T00:08:22.336Z,5.28
2023-10-23T00:08:34.175Z,8.60
2023-10-23T00:08:45.959Z,8.27
2023-10-23T00:08:57.888Z,4.10
2023-10-23T00:09:09.622Z,6.53
2023-10-23T00:09:21.492Z,8.20
2023-10-23T00:09:33.414Z,7.03
2023-10-23T00:09:45.280Z,5.28
2023-10-23T00:09:57.135Z,4.88
2023-10-23T00:10:09.865Z,2.40
2023-10-23T00:10:23.007Z,4.00
2023-10-23T00:10:34.824Z,5.05
2023-10-23T00:10:46.632Z,5.38
2023-10-23T00:10:58.465Z,3.15
2023-10-23T00:11:10.252Z,9.02
2023-10-23T00:11:23.030Z,9.13
2023-10-23T00:11:34.901Z,6.97
2023-10-23T00:11:46.687Z,3.30
2023-10-23T00:11:58.486Z,5.97
2023-10-23T00:12:10.394Z,5.82
2023-10-23T00:12:22.232Z,4.18
2023-10-23T00:12:34.065Z,4.03
2023-10-23T00:12:46.046Z,4.95
2023-10-23T00:12:57.984Z,4.68
2023-10-23T00:13:09.832Z,3.15
2023-10-23T00:13:21.663Z,3.22
2023-10-23T00:13:33.470Z,5.13
2023-10-23T00:13:45.360Z,5.10
2023-10-23T00:13:57.667Z,4.63
2023-10-23T00:14:09.470Z,8.70
2023-10-23T00:14:21.302Z,8.55
2023-10-23T00:14:33.208Z,6.13
2023-10-23T00:14:44.986Z,4.25
2023-10-23T00:14:56.784Z,5.10
2023-10-23T00:15:09.209Z,4.80
2023-10-23T00:15:21.059Z,4.13
2023-10-23T00:15:33.391Z,2.60
2023-10-23T00:15:45.303Z,2.97
2023-10-23T00:15:57.241Z,3.33
2023-10-23T00:16:09.294Z,3.92
2023-10-23T00:16:21.626Z,6.78
2023-10-23T00:16:33.476Z,6.95
2023-10-23T00:16:45.450Z,4.63
2023-10-23T00:16:57.284Z,5.05
2023-10-23T00:17:09.067Z,5.05
2023-10-23T00:17:20.861Z,4.63
2023-10-23T00:17:34.228Z,2.92
2023-10-23T00:17:45.995Z,2.83
2023-10-23T00:17:57.790Z,5.68
2023-10-23T00:18:09.655Z,5.88
2023-10-23T00:18:21.622Z,5.32
2023-10-23T00:18:33.460Z,3.63
2023-10-23T00:18:45.358Z,3.80
2023-10-23T00:18:57.281Z,3.85
2023-10-23T00:19:09.110Z,3.50
2023-10-23T00:19:20.872Z,3.95
2023-10-23T00:19:32.747Z,4.50
2023-10-23T00:19:44.493Z,3.55
2023-10-23T00:19:56.288Z,3.38
2023-10-23T00:20:09.225Z,3.13
2023-10-23T00:20:21.523Z,4.10
2023-10-23T00:20:33.309Z,3.60
2023-10-23T00:20:45.076Z,2.95
2023-10-23T00:20:56.877Z,3.08
2023-10-23T00:21:09.285Z,3.00
2023-10-23T00:21:21.331Z,4.25
2023-10-23T00:21:33.236Z,4.72
2023-10-23T00:21:45.046Z,3.47
2023-10-23T00:21:56.798Z,2.88
2023-10-23T00:22:08.642Z,2.40
2023-10-23T00:22:20.516Z,2.45
2023-10-23T00:22:32.341Z,2.72
2023-10-23T00:22:44.150Z,3.28
2023-10-23T00:22:55.976Z,3.30
2023-10-23T00:23:07.679Z,2.90
2023-10-23T00:23:19.496Z,4.45
2023-10-23T00:23:31.275Z,4.78
2023-10-23T00:23:57.007Z,4.20
2023-10-23T00:24:16.341Z,4.35
2023-10-23T00:24:31.277Z,3.58
2023-10-23T00:24:43.651Z,3.28
2023-10-23T00:24:56.027Z,2.28
2023-10-23T00:25:11.634Z,3.28
2023-10-23T00:25:25.514Z,3.78
2023-10-23T00:25:38.106Z,4.30
2023-10-23T00:25:50.357Z,6.63
2023-10-23T00:26:02.693Z,7.00
2023-10-23T00:26:15.059Z,7.38
2023-10-23T00:26:35.453Z,4.47
2023-10-23T00:26:47.863Z,3.53
2023-10-23T00:26:59.966Z,7.20
2023-10-23T00:27:12.124Z,7.40
2023-10-23T00:27:24.834Z,4.70
2023-10-23T00:27:37.292Z,5.45
2023-10-23T00:27:52.290Z,5.03
2023-10-23T00:28:04.819Z,3.10
2023-10-23T00:28:16.944Z,3.42
2023-10-23T00:28:29.551Z,3.83
2023-10-23T00:28:42.066Z,4.22
2023-10-23T00:28:54.565Z,4.70
2023-10-23T00:29:08.988Z,4.50
2023-10-23T00:29:24.227Z,4.82
2023-10-23T00:29:36.543Z,6.13
2023-10-23T00:29:49.811Z,5.35
2023-10-23T00:30:04.728Z,5.65
2023-10-23T00:30:17.364Z,4.88
2023-10-23T00:30:31.244Z,5.35
2023-10-23T00:30:45.399Z,5.35
2023-10-23T00:30:58.720Z,6.03
2023-10-23T00:31:11.819Z,4.82
2023-10-23T00:31:26.076Z,4.50
2023-10-23T00:31:38.520Z,4.53
2023-10-23T00:31:50.944Z,2.85
2023-10-23T00:32:04.256Z,4.15
2023-10-23T00:32:16.604Z,5.53
2023-10-23T00:32:29.128Z,5.32
2023-10-23T00:32:43.683Z,4.75
2023-10-23T00:32:56.187Z,7.40
2023-10-23T00:33:09.111Z,8.43
2023-10-23T00:33:22.187Z,4.80
2023-10-23T00:33:34.739Z,4.70
2023-10-23T00:33:47.355Z,3.67
2023-10-23T00:34:00.231Z,3.40
2023-10-23T00:34:12.947Z,5.82
2023-10-23T00:34:25.261Z,6.10
2023-10-23T00:34:37.766Z,4.93
2023-10-23T00:34:50.759Z,3.95
2023-10-23T00:35:03.278Z,3.42
2023-10-23T00:35:17.029Z,4.57
2023-10-23T00:35:29.558Z,4.40
2023-10-23T00:35:41.884Z,3.95
2023-10-23T00:35:54.791Z,6.28
2023-10-23T00:36:08.013Z,5.90
2023-10-23T00:36:20.543Z,4.15
2023-10-23T00:36:33.124Z,7.63
2023-10-23T00:36:45.825Z,6.75
2023-10-23T00:36:58.047Z,4.88
2023-10-23T00:37:11.540Z,3.15
2023-10-23T00:37:23.713Z,3.92
2023-10-23T00:37:36.211Z,5.63
2023-10-23T00:37:48.860Z,5.43
2023-10-23T00:38:01.175Z,4.53
2023-10-23T00:38:13.439Z,3.35
2023-10-23T00:38:25.771Z,4.40
2023-10-23T00:38:38.537Z,4.18
2023-10-23T00:38:50.736Z,3.28
2023-10-23T00:39:03.486Z,2.70
2023-10-23T00:39:15.726Z,3.95
2023-10-23T00:39:27.839Z,5.55
2023-10-23T00:39:40.286Z,5.05
2023-10-23T00:39:52.565Z,4.10
2023-10-23T00:40:05.447Z,3.92
2023-10-23T00:40:18.208Z,4.00
2023-10-23T00:40:32.494Z,3.63
2023-10-23T00:40:44.776Z,4.75
2023-10-23T00:40:57.282Z,5.55
2023-10-23T00:41:09.583Z,5.32
2023-10-23T00:41:22.590Z,2.90
2023-10-23T00:41:35.010Z,2.80
2023-10-23T00:41:48.066Z,2.83
2023-10-23T00:42:00.725Z,3.82
2023-10-23T00:42:13.058Z,6.22
2023-10-23T00:42:25.504Z,6.03
2023-10-23T00:42:37.712Z,3.92
2023-10-23T00:42:50.111Z,3.25
2023-10-23T00:43:12.540Z,3.10
2023-10-23T00:43:25.981Z,8.05
2023-10-23T00:43:38.274Z,5.45
2023-10-23T00:43:50.330Z,5.78
2023-10-23T00:44:02.477Z,4.95
2023-10-23T00:44:14.873Z,4.05
2023-10-23T00:44:27.198Z,4.13
2023-10-23T00:44:39.335Z,3.67
2023-10-23T00:44:51.537Z,2.88
2023-10-23T00:45:06.018Z,2.88
2023-10-23T00:45:18.221Z,3.13
2023-10-23T00:45:30.515Z,3.95
2023-10-23T00:45:50.357Z,4.78
2023-10-23T00:46:05.604Z,4.93
2023-10-23T00:46:21.724Z,4.50
2023-10-23T00:46:34.077Z,6.20
2023-10-23T00:46:46.715Z,7.05
2023-10-23T00:46:59.007Z,5.45
2023-10-23T00:47:12.066Z,4.93
2023-10-23T00:47:25.037Z,5.45
2023-10-23T00:47:37.134Z,5.15
2023-10-23T00:47:50.116Z,5.10
2023-10-23T00:48:02.906Z,4.28
2023-10-23T00:48:15.406Z,4.53
2023-10-23T00:48:28.258Z,4.63
2023-10-23T00:48:40.666Z,6.22
2023-10-23T00:48:52.986Z,6.03
2023-10-23T00:49:05.393Z,4.75
2023-10-23T00:49:17.584Z,3.90
2023-10-23T00:49:30.260Z,4.00
2023-10-23T00:49:42.804Z,4.28
2023-10-23T00:49:55.132Z,4.32
2023-10-23T00:50:08.209Z,5.72
2023-10-23T00:50:20.426Z,5.95
2023-10-23T00:50:32.675Z,6.25
2023-10-23T00:50:44.945Z,5.10
2023-10-23T00:50:59.610Z,3.78
2023-10-23T00:51:12.864Z,2.78
2023-10-23T00:51:25.412Z,4.15
2023-10-23T00:51:38.103Z,4.22
2023-10-23T00:51:51.100Z,4.80
2023-10-23T00:52:03.700Z,5.97
2023-10-23T00:52:16.396Z,5.10
2023-10-23T00:52:28.904Z,4.82
2023-10-23T00:52:41.395Z,3.90
2023-10-23T00:52:53.777Z,4.95
2023-10-23T00:53:06.668Z,4.38
2023-10-23T00:53:20.001Z,4.55
2023-10-23T00:53:34.840Z,4.93
2023-10-23T00:53:47.443Z,3.97
2023-10-23T00:54:00.077Z,4.30
2023-10-23T00:54:12.790Z,5.65
2023-10-23T00:54:25.540Z,5.85
2023-10-23T00:54:39.885Z,6.13
2023-10-23T00:54:53.961Z,5.57
2023-10-23T00:55:07.688Z,5.45
2023-10-23T00:55:20.006Z,3.83
2023-10-23T00:55:33.827Z,4.68
2023-10-23T00:55:47.301Z,6.80
2023-10-23T00:56:00.781Z,7.10
2023-10-23T00:56:13.361Z,4.70
2023-10-23T00:56:27.451Z,3.67
2023-10-23T00:56:39.841Z,3.35
2023-10-23T00:56:52.172Z,3.70
2023-10-23T00:57:05.325Z,3.20
2023-10-23T00:57:17.741Z,3.63
2023-10-23T00:57:29.985Z,3.63
2023-10-23T00:57:42.587Z,4.50
2023-10-23T00:57:54.957Z,4.35
2023-10-23T00:58:07.937Z,4.03
2023-10-23T00:58:21.095Z,3.53
2023-10-23T00:58:33.949Z,3.25
2023-10-23T00:58:47.733Z,3.05
2023-10-23T00:59:01.880Z,3.38
2023-10-23T00:59:14.901Z,4.78
2023-10-23T00:59:27.153Z,4.70
2023-10-23T00:59:39.678Z,4.28
2023-10-23T00:59:56.023Z,4.78
2023-10-23T01:00:09.892Z,4.53
2023-10-23T01:00:22.669Z,3.97
2023-10-23T01:00:36.308Z,4.78
2023-10-23T01:00:49.323Z,4.57
2023-10-23T01:01:03.061Z,2.95
2023-10-23T01:01:16.094Z,4.32
2023-10-23T01:01:30.288Z,6.10
2023-10-23T01:01:44.968Z,5.95
2023-10-23T01:01:57.849Z,4.43
2023-10-23T01:02:10.766Z,6.85
2023-10-23T01:02:23.252Z,7.75
2023-10-23T01:02:35.835Z,5.05
2023-10-23T01:02:48.243Z,4.82
2023-10-23T01:03:01.035Z,5.15
2023-10-23T01:03:13.121Z,5.03
2023-10-23T01:03:25.771Z,3.30
2023-10-23T01:03:37.793Z,6.18
2023-10-23T01:03:50.111Z,6.75
2023-10-23T01:04:03.008Z,10.50
2023-10-23T01:04:15.190Z,8.15
2023-10-23T01:04:27.936Z,5.90
2023-10-23T01:04:47.815Z,4.18
2023-10-23T01:05:00.212Z,4.43
2023-10-23T01:05:12.432Z,6.15
2023-10-23T01:05:24.989Z,9.82
2023-10-23T01:05:37.982Z,8.02
2023-10-23T01:05:50.213Z,4.20
2023-10-23T01:06:02.572Z,5.47
2023-10-23T01:06:14.776Z,6.00
2023-10-23T01:06:27.713Z,5.00
2023-10-23T01:06:40.044Z,4.07
2023-10-23T01:06:52.289Z,2.97
2023-10-23T01:07:04.594Z,3.50
2023-10-23T01:07:16.816Z,5.60
2023-10-23T01:07:29.185Z,6.88
2023-10-23T01:07:41.171Z,11.88
2023-10-23T01:07:53.325Z,11.52
2023-10-23T01:08:05.709Z,8.82
2023-10-23T01:08:18.858Z,4.07
2023-10-23T01:08:31.654Z,3.20
2023-10-23T01:08:44.509Z,3.65
2023-10-23T01:08:57.402Z,3.60
2023-10-23T01:09:09.632Z,3.95
2023-10-23T01:09:22.052Z,6.18
2023-10-23T01:09:34.383Z,5.43
2023-10-23T01:09:46.481Z,4.45
2023-10-23T01:09:59.049Z,3.75
2023-10-23T01:10:11.338Z,3.53
2023-10-23T01:10:23.775Z,4.32
2023-10-23T01:10:37.216Z,4.40
2023-10-23T01:10:49.586Z,3.70
2023-10-23T01:11:01.819Z,3.63
2023-10-23T01:11:14.084Z,3.97
2023-10-23T01:11:26.427Z,2.38
2023-10-23T01:11:38.706Z,3.03
2023-10-23T01:11:50.794Z,3.10
2023-10-23T01:12:02.966Z,4.60
2023-10-23T01:12:15.132Z,6.25
2023-10-23T01:12:27.769Z,5.68
2023-10-23T01:12:40.071Z,3.92
2023-10-23T01:12:54.460Z,3.83
2023-10-23T01:13:07.614Z,3.67
2023-10-23T01:13:20.122Z,3.42
2023-10-23T01:13:32.298Z,4.55
2023-10-23T01:13:44.602Z,5.22
2023-10-23T01:13:56.576Z,3.80
2023-10-23T01:14:10.288Z,3.67
2023-10-23T01:14:22.518Z,3.15
2023-10-23T01:14:34.647Z,2.80
2023-10-23T01:14:46.749Z,3.80
2023-10-23T01:14:58.720Z,6.03
2023-10-23T01:15:14.695Z,6.28
2023-10-23T01:15:27.244Z,4.40
2023-10-23T01:15:39.558Z,4.45
2023-10-23T01:15:51.795Z,4.50
2023-10-23T01:16:04.209Z,4.15
2023-10-23T01:16:16.895Z,3.50
2023-10-23T01:16:29.198Z,3.95
2023-10-23T01:16:41.627Z,3.97
2023-10-23T01:16:53.958Z,3.55
2023-10-23T01:17:06.483Z,3.00
2023-10-23T01:17:18.798Z,3.33
2023-10-23T01:17:34.071Z,3.92
2023-10-23T01:17:46.424Z,4.55
2023-10-23T01:17:58.553Z,4.22
2023-10-23T01:18:10.986Z,5.10
2023-10-23T01:18:23.126Z,3.92
2023-10-23T01:18:35.671Z,2.60
2023-10-23T01:18:48.034Z,2.35
2023-10-23T01:19:00.518Z,4.75
2023-10-23T01:19:12.695Z,6.55
2023-10-23T01:19:24.893Z,7.97
2023-10-23T01:19:37.247Z,7.32
2023-10-23T01:19:49.582Z,5.43
2023-10-23T01:20:02.158Z,4.07
2023-10-23T01:20:16.401Z,4.75
2023-10-23T01:20:29.523Z,5.35
2023-10-23T01:20:42.236Z,5.13
2023-10-23T01:20:54.412Z,8.73
2023-10-23T01:21:07.878Z,6.90
2023-10-23T01:21:19.955Z,2.72
2023-10-23T01:21:32.109Z,4.32
2023-10-23T01:21:44.668Z,5.18
2023-10-23T01:21:57.103Z,5.63
2023-10-23T01:22:12.174Z,5.75
2023-10-23T01:22:24.468Z,4.70
2023-10-23T01:22:36.681Z,6.25
2023-10-23T01:22:49.564Z,7.90
2023-10-23T01:23:03.611Z,9.13
2023-10-23T01:23:16.321Z,6.47
2023-10-23T01:23:33.048Z,4.15
2023-10-23T01:23:48.754Z,4.25
2023-10-23T01:24:02.172Z,4.78
2023-10-23T01:24:17.784Z,4.43
2023-10-23T01:24:34.242Z,3.00
2023-10-23T01:24:50.033Z,4.97
2023-10-23T01:25:03.096Z,5.97
2023-10-23T01:25:17.476Z,5.85
2023-10-23T01:25:30.263Z,7.80
2023-10-23T01:25:42.431Z,6.57
2023-10-23T01:25:54.706Z,5.70
2023-10-23T01:26:06.819Z,3.38
2023-10-23T01:26:19.024Z,2.85
2023-10-23T01:26:31.385Z,3.00
2023-10-23T01:26:43.472Z,3.50
2023-10-23T01:26:55.727Z,5.35
2023-10-23T01:27:07.918Z,6.07
2023-10-23T01:27:21.074Z,6.25
2023-10-23T01:27:33.194Z,5.40
2023-10-23T01:27:45.391Z,4.85
2023-10-23T01:27:57.800Z,3.97
2023-10-23T01:28:10.008Z,2.83
2023-10-23T01:28:22.232Z,4.00
2023-10-23T01:28:34.471Z,5.25
2023-10-23T01:28:46.624Z,6.05
2023-10-23T01:28:58.603Z,6.95
2023-10-23T01:29:10.800Z,7.13
2023-10-23T01:29:23.725Z,6.75
2023-10-23T01:29:36.017Z,6.05
2023-10-23T01:29:48.171Z,7.85
2023-10-23T01:30:00.237Z,6.32
2023-10-23T01:30:12.565Z,3.75
2023-10-23T01:30:24.809Z,3.40
2023-10-23T01:30:36.977Z,3.83
2023-10-23T01:30:49.345Z,4.72
2023-10-23T01:31:02.334Z,4.53
2023-10-23T01:31:14.744Z,3.72
2023-10-23T01:31:27.140Z,4.45
2023-10-23T01:31:39.490Z,5.68
2023-10-23T01:31:52.199Z,7.57
2023-10-23T01:32:04.846Z,14.05
2023-10-23T01:32:16.872Z,11.45
2023-10-23T01:32:29.118Z,10.77
2023-10-23T01:32:41.298Z,4.85
2023-10-23T01:32:53.366Z,5.38
2023-10-23T01:33:05.739Z,5.30
2023-10-23T01:33:18.014Z,4.25
2023-10-23T01:33:30.450Z,5.32
2023-10-23T01:33:42.522Z,10.23
2023-10-23T01:33:55.913Z,9.77
2023-10-23T01:34:08.392Z,4.75
2023-10-23T01:34:20.584Z,4.43
2023-10-23T01:34:32.767Z,4.80
2023-10-23T01:34:44.932Z,5.80
2023-10-23T01:34:57.258Z,5.68
2023-10-23T01:35:11.088Z,4.75
2023-10-23T01:35:23.165Z,4.50
2023-10-23T01:35:36.812Z,3.80
2023-10-23T01:35:48.854Z,4.68
2023-10-23T01:36:01.217Z,7.18
2023-10-23T01:36:13.421Z,7.50
2023-10-23T01:36:25.591Z,7.10
2023-10-23T01:36:37.693Z,8.25
2023-10-23T01:36:49.964Z,7.65
2023-10-23T01:37:02.212Z,5.22
2023-10-23T01:37:14.173Z,4.78
2023-10-23T01:37:26.560Z,4.68
2023-10-23T01:37:39.006Z,4.50
2023-10-23T01:37:51.270Z,7.15
2023-10-23T01:38:03.477Z,7.70
2023-10-23T01:38:17.229Z,6.75
2023-10-23T01:38:29.552Z,3.40
2023-10-23T01:38:44.085Z,3.47
2023-10-23T01:38:56.257Z,3.47
2023-10-23T01:39:08.666Z,3.20
2023-10-23T01:39:20.862Z,3.80
2023-10-23T01:39:33.280Z,4.85
2023-10-23T01:39:45.652Z,5.50
2023-10-23T01:39:57.813Z,5.07
2023-10-23T01:40:11.029Z,5.78
2023-10-23T01:40:24.821Z,5.22
2023-10-23T01:40:36.801Z,8.48
2023-10-23T01:40:49.084Z,8.95
2023-10-23T01:41:01.896Z,7.97
2023-10-23T01:41:14.004Z,5.80
2023-10-23T01:41:26.282Z,4.57
2023-10-23T01:41:38.529Z,5.20
2023-10-23T01:41:50.723Z,6.15
2023-10-23T01:42:03.938Z,8.60
2023-10-23T01:42:16.160Z,6.43
2023-10-23T01:42:28.626Z,6.13
2023-10-23T01:42:44.166Z,7.47
2023-10-23T01:42:56.689Z,7.90
2023-10-23T01:43:09.057Z,6.65
2023-10-23T01:43:22.469Z,5.72
2023-10-23T01:43:37.424Z,4.65
2023-10-23T01:43:49.652Z,3.90
2023-10-23T01:44:02.000Z,4.53
2023-10-23T01:44:14.388Z,5.25
2023-10-23T01:44:26.526Z,4.93
2023-10-23T01:44:38.913Z,4.28
2023-10-23T01:44:51.051Z,5.82
2023-10-23T01:45:11.564Z,6.78
2023-10-23T01:45:24.122Z,4.93
2023-10-23T01:45:36.455Z,6.97
2023-10-23T01:45:48.838Z,7.95
2023-10-23T01:46:01.116Z,5.82
2023-10-23T01:46:13.694Z,6.70
2023-10-23T01:46:25.754Z,4.95
2023-10-23T01:46:38.297Z,5.53
2023-10-23T01:46:50.704Z,4.68
2023-10-23T01:47:02.957Z,6.15
2023-10-23T01:47:15.189Z,5.13
2023-10-23T01:47:28.337Z,5.20
2023-10-23T01:47:40.543Z,7.18
2023-10-23T01:47:52.949Z,6.90
2023-10-23T01:48:06.027Z,5.68
2023-10-23T01:48:19.606Z,5.40
2023-10-23T01:48:31.868Z,5.70
2023-10-23T01:48:44.202Z,5.95
2023-10-23T01:48:56.384Z,6.55
2023-10-23T01:49:08.793Z,5.97
2023-10-23T01:49:20.881Z,6.20
2023-10-23T01:49:35.031Z,5.30
2023-10-23T01:49:47.282Z,6.20
2023-10-23T01:49:59.576Z,6.13
2023-10-23T01:50:12.039Z,4.88
2023-10-23T01:50:24.466Z,3.58
2023-10-23T01:50:37.857Z,5.15
2023-10-23T01:50:51.697Z,6.25
2023-10-23T01:51:04.303Z,5.50
2023-10-23T01:51:16.510Z,4.53
2023-10-23T01:51:28.837Z,4.95
2023-10-23T01:51:40.972Z,5.07
2023-10-23T01:51:54.741Z,3.47
2023-10-23T01:52:07.068Z,3.85
2023-10-23T01:52:19.553Z,4.68
2023-10-23T01:52:31.646Z,5.13
2023-10-23T01:52:44.101Z,4.30
2023-10-23T01:52:56.436Z,3.03
2023-10-23T01:53:08.747Z,2.85
2023-10-23T01:53:20.942Z,3.50
2023-10-23T01:53:33.194Z,8.05
2023-10-23T01:53:45.374Z,7.60
2023-10-23T01:54:01.867Z,4.57
2023-10-23T01:54:14.016Z,4.28
2023-10-23T01:54:26.258Z,3.70
2023-10-23T01:54:38.675Z,4.28
2023-10-23T01:54:51.959Z,6.55
2023-10-23T01:55:04.834Z,6.85
2023-10-23T01:55:17.339Z,6.18
2023-10-23T01:55:32.970Z,5.97
2023-10-23T01:55:45.327Z,4.75
2023-10-23T01:55:57.399Z,3.83
2023-10-23T01:56:09.831Z,4.55
2023-10-23T01:56:22.280Z,3.65
2023-10-23T01:56:36.384Z,4.80
2023-10-23T01:56:48.504Z,5.38
2023-10-23T01:57:00.820Z,5.05
2023-10-23T01:57:13.446Z,3.95
2023-10-23T01:57:26.014Z,3.33
2023-10-23T01:57:38.315Z,3.75
2023-10-23T01:57:50.602Z,5.15
2023-10-23T01:58:02.913Z,5.68
2023-10-23T01:58:15.089Z,4.88
2023-10-23T01:58:27.493Z,4.93
2023-10-23T01:58:39.798Z,4.63
2023-10-23T01:58:52.692Z,3.80
2023-10-23T01:59:05.370Z,4.10
2023-10-23T01:59:17.674Z,5.03
2023-10-23T01:59:29.754Z,5.55
2023-10-23T01:59:42.554Z,4.10
2023-10-23T01:59:55.002Z,3.05
2023-10-23T02:00:08.980Z,2.47
2023-10-23T02:00:29.019Z,3.30
2023-10-23T02:00:41.300Z,3.72
2023-10-23T02:00:53.562Z,3.28
2023-10-23T02:01:05.981Z,3.63
2023-10-23T02:01:22.632Z,3.63
2023-10-23T02:01:35.055Z,3.65
2023-10-23T02:01:47.401Z,4.90
2023-10-23T02:01:59.497Z,6.15
2023-10-23T02:02:11.761Z,5.53
2023-10-23T02:02:23.935Z,4.05
2023-10-23T02:02:36.316Z,3.92
2023-10-23T02:02:48.599Z,3.90
2023-10-23T02:03:00.917Z,4.80
2023-10-23T02:03:13.728Z,6.18
2023-10-23T02:03:25.968Z,7.45
2023-10-23T02:03:41.055Z,5.63
2023-10-23T02:03:53.646Z,2.75
2023-10-23T02:04:06.248Z,2.97
2023-10-23T02:04:18.384Z,5.10
2023-10-23T02:04:30.684Z,9.68
2023-10-23T02:04:43.017Z,9.23
2023-10-23T02:04:55.730Z,4.03
2023-10-23T02:05:08.382Z,3.40
2023-10-23T02:05:20.876Z,3.38
2023-10-23T02:05:33.141Z,4.18
2023-10-23T02:05:45.252Z,3.50
2023-10-23T02:05:57.341Z,4.40
2023-10-23T02:06:10.046Z,6.85
2023-10-23T02:06:22.241Z,6.40
2023-10-23T02:06:34.487Z,4.03
2023-10-23T02:06:46.585Z,3.75
2023-10-23T02:06:59.106Z,4.28
2023-10-23T02:07:11.807Z,4.60
2023-10-23T02:07:24.172Z,5.45
2023-10-23T02:07:36.372Z,4.55
2023-10-23T02:07:48.591Z,3.80
2023-10-23T02:08:00.911Z,4.70
2023-10-23T02:08:13.299Z,4.97
2023-10-23T02:08:25.562Z,6.88
2023-10-23T02:08:37.858Z,6.50
2023-10-23T02:08:49.977Z,7.65
2023-10-23T02:09:02.180Z,6.03
2023-10-23T02:09:14.460Z,4.40
2023-10-23T02:09:26.562Z,2.88
2023-10-23T02:09:38.903Z,3.28
2023-10-23T02:09:53.241Z,4.22
2023-10-23T02:10:06.177Z,4.97
2023-10-23T02:10:18.354Z,4.35
2023-10-23T02:10:32.189Z,6.40
2023-10-23T02:10:44.493Z,7.70
2023-10-23T02:10:56.449Z,6.50
2023-10-23T02:11:09.289Z,3.55
2023-10-23T02:11:21.509Z,2.65
2023-10-23T02:11:33.835Z,3.13
2023-10-23T02:11:46.222Z,4.13
2023-10-23T02:11:58.603Z,6.95
2023-10-23T02:12:10.913Z,7.47
2023-10-23T02:12:23.279Z,7.38
2023-10-23T02:12:35.617Z,9.65
2023-10-23T02:12:47.731Z,10.40
2023-10-23T02:12:59.873Z,9.93
2023-10-23T02:13:12.946Z,5.97
2023-10-23T02:13:25.219Z,4.38
2023-10-23T02:13:38.045Z,4.05
2023-10-23T02:13:50.084Z,5.20
2023-10-23T02:14:02.369Z,7.57
2023-10-23T02:14:14.705Z,7.13
2023-10-23T02:14:28.317Z,6.75
2023-10-23T02:14:40.675Z,4.93
2023-10-23T02:14:52.991Z,4.78
2023-10-23T02:15:07.699Z,4.22
2023-10-23T02:15:19.865Z,5.30
2023-10-23T02:15:33.910Z,7.07
2023-10-23T02:15:45.996Z,7.95
2023-10-23T02:15:58.423Z,5.22
2023-10-23T02:16:10.716Z,4.60
2023-10-23T02:16:22.922Z,4.25
2023-10-23T02:16:35.243Z,5.07
2023-10-23T02:16:47.623Z,8.07
2023-10-23T02:17:03.260Z,8.80
2023-10-23T02:17:16.793Z,6.38
2023-10-23T02:17:29.741Z,5.80
2023-10-23T02:17:42.564Z,4.85
2023-10-23T02:17:54.926Z,5.63
2023-10-23T02:18:08.785Z,7.30
2023-10-23T02:18:20.898Z,5.43
2023-10-23T02:18:33.354Z,4.95
2023-10-23T02:18:48.469Z,4.57
2023-10-23T02:19:01.522Z,5.25
2023-10-23T02:19:14.078Z,6.60
2023-10-23T02:19:26.487Z,7.28
2023-10-23T02:19:38.904Z,6.78
2023-10-23T02:19:51.189Z,11.55
2023-10-23T02:20:03.632Z,10.43
2023-10-23T02:20:16.133Z,5.35
2023-10-23T02:20:28.908Z,3.75
2023-10-23T02:20:41.368Z,5.05
2023-10-23T02:20:54.483Z,5.07
2023-10-23T02:21:09.617Z,5.30
2023-10-23T02:21:21.832Z,4.15
2023-10-23T02:21:37.138Z,3.95
2023-10-23T02:21:49.643Z,7.15
2023-10-23T02:22:02.162Z,7.03
2023-10-23T02:22:14.400Z,5.90
2023-10-23T02:22:26.745Z,5.15
2023-10-23T02:22:39.122Z,4.47
2023-10-23T02:22:51.302Z,4.22
2023-10-23T02:23:03.498Z,5.22
2023-10-23T02:23:19.109Z,5.18
2023-10-23T02:23:40.928Z,5.90
2023-10-23T02:24:01.649Z,4.15
2023-10-23T02:24:13.843Z,3.10
2023-10-23T02:24:26.028Z,3.38
2023-10-23T02:24:38.635Z,3.65
2023-10-23T02:24:51.819Z,4.22
2023-10-23T02:25:05.641Z,4.28
2023-10-23T02:25:18.352Z,4.38
2023-10-23T02:25:39.553Z,4.50
2023-10-23T02:25:51.937Z,5.63
2023-10-23T02:26:04.692Z,5.60
2023-10-23T02:26:17.135Z,3.38
2023-10-23T02:26:30.303Z,5.82
2023-10-23T02:26:43.186Z,5.57
2023-10-23T02:26:55.594Z,6.63
2023-10-23T02:27:08.072Z,7.20
2023-10-23T02:27:20.410Z,7.00
2023-10-23T02:27:34.379Z,6.18
2023-10-23T02:27:46.790Z,4.20
2023-10-23T02:27:59.274Z,5.90
2023-10-23T02:28:11.677Z,6.53
2023-10-23T02:28:23.823Z,7.70
2023-10-23T02:28:36.561Z,6.10
2023-10-23T02:28:49.160Z,6.03
2023-10-23T02:29:02.102Z,7.80
2023-10-23T02:29:14.510Z,7.38
2023-10-23T02:29:27.086Z,7.00
2023-10-23T02:29:40.262Z,4.10
2023-10-23T02:29:52.899Z,6.00
2023-10-23T02:30:06.668Z,8.80
2023-10-23T02:30:19.255Z,8.82
2023-10-23T02:30:31.967Z,5.82
2023-10-23T02:30:44.334Z,3.83
2023-10-23T02:30:57.087Z,6.60
2023-10-23T02:31:09.573Z,9.88
2023-10-23T02:31:25.724Z,11.63
2023-10-23T02:31:38.498Z,6.55
2023-10-23T02:31:51.173Z,5.72
2023-10-23T02:32:03.854Z,5.97
2023-10-23T02:32:16.125Z,6.07
2023-10-23T02:32:28.547Z,6.18
2023-10-23T02:32:40.718Z,6.45
2023-10-23T02:32:52.913Z,7.50
2023-10-23T02:33:05.528Z,7.72
2023-10-23T02:33:17.802Z,6.80
2023-10-23T02:33:30.826Z,4.75
2023-10-23T02:33:45.490Z,6.00
2023-10-23T02:33:57.802Z,7.15
2023-10-23T02:34:10.495Z,6.72
2023-10-23T02:34:22.845Z,6.63
2023-10-23T02:34:36.208Z,5.32
2023-10-23T02:35:00.802Z,3.72
2023-10-23T02:35:14.210Z,4.93
2023-10-23T02:35:26.323Z,6.28
2023-10-23T02:35:43.299Z,5.85
2023-10-23T02:35:55.545Z,4.22
2023-10-23T02:36:08.346Z,3.75
2023-10-23T02:36:20.566Z,5.18
2023-10-23T02:36:33.130Z,8.13
2023-10-23T02:36:45.663Z,9.27
2023-10-23T02:36:57.903Z,8.07
2023-10-23T02:37:10.371Z,6.28
2023-10-23T02:37:23.056Z,6.38
2023-10-23T02:37:35.333Z,7.30
2023-10-23T02:37:47.813Z,7.45
2023-10-23T02:38:00.113Z,7.13
2023-10-23T02:38:12.528Z,5.80
2023-10-23T02:38:24.734Z,5.68
2023-10-23T02:38:38.304Z,6.32
2023-10-23T02:38:50.721Z,6.07
2023-10-23T02:39:03.079Z,5.38
2023-10-23T02:39:15.392Z,5.85
2023-10-23T02:39:28.905Z,6.88
2023-10-23T02:39:42.220Z,6.93
2023-10-23T02:39:54.519Z,7.35
2023-10-23T02:40:07.923Z,5.35
2023-10-23T02:40:20.293Z,5.05
2023-10-23T02:40:33.771Z,6.28
2023-10-23T02:40:52.150Z,6.65
2023-10-23T02:41:04.222Z,5.72
2023-10-23T02:41:16.392Z,5.72
2023-10-23T02:41:29.716Z,5.28
2023-10-23T02:41:41.942Z,4.90
2023-10-23T02:41:54.098Z,5.25
2023-10-23T02:42:06.230Z,5.65
2023-10-23T02:42:18.383Z,4.65
2023-10-23T02:42:30.862Z,5.13
2023-10-23T02:42:45.161Z,7.57
2023-10-23T02:42:57.256Z,7.60
2023-10-23T02:43:09.348Z,6.32
2023-10-23T02:43:23.384Z,5.00
2023-10-23T02:43:35.467Z,6.13
2023-10-23T02:43:51.342Z,6.95
2023-10-23T02:44:03.420Z,5.93
2023-10-23T02:44:15.615Z,4.95
2023-10-23T02:44:27.805Z,5.15
2023-10-23T02:44:40.109Z,4.88
2023-10-23T02:44:52.185Z,4.70
2023-10-23T02:45:05.495Z,5.88
2023-10-23T02:45:17.633Z,6.47
2023-10-23T02:45:29.999Z,6.20
2023-10-23T02:45:42.180Z,5.45
2023-10-23T02:45:54.503Z,6.13
2023-10-23T02:46:07.034Z,5.82
2023-10-23T02:46:19.528Z,6.57
2023-10-23T02:46:33.028Z,6.28
2023-10-23T02:46:45.345Z,4.35
2023-10-23T02:46:57.565Z,4.55
2023-10-23T02:47:09.697Z,4.65
2023-10-23T02:47:22.117Z,5.10
2023-10-23T02:47:34.399Z,5.93
2023-10-23T02:47:46.799Z,5.45
2023-10-23T02:47:58.989Z,5.13
2023-10-23T02:48:12.654Z,4.90
2023-10-23T02:48:25.108Z,8.88
2023-10-23T02:48:38.720Z,10.00
2023-10-23T02:48:51.202Z,9.23
2023-10-23T02:49:04.278Z,7.70
2023-10-23T02:49:16.575Z,9.57
2023-10-23T02:49:28.653Z,7.25
2023-10-23T02:49:40.895Z,6.88
2023-10-23T02:49:54.497Z,4.63
2023-10-23T02:50:08.074Z,6.18